createdAt,value
2023-05-04T00:00:15.921Z,22.88
2023-05-04T00:02:45.672Z,19.70
2023-05-04T00:05:15.275Z,20.85
2023-05-04T00:07:47.375Z,22.35
2023-05-04T00:10:17.439Z,20.02
2023-05-04T00:12:47.016Z,19.85
2023-05-04T00:15:16.763Z,24.17
2023-05-04T00:17:46.357Z,20.90
2023-05-04T00:20:16.423Z,21.38
2023-05-04T00:22:48.544Z,19.70
2023-05-04T00:25:18.051Z,20.15
2023-05-04T00:27:47.560Z,21.90
2023-05-04T00:30:17.701Z,21.02
2023-05-04T00:32:47.229Z,24.42
2023-05-04T00:35:20.552Z,20.70
2023-05-04T00:37:52.662Z,26.65
2023-05-04T00:40:22.593Z,23.27
2023-05-04T00:42:52.212Z,20.98
2023-05-04T00:45:21.903Z,21.83
2023-05-04T00:47:52.412Z,21.33
2023-05-04T00:50:22.542Z,24.63
2023-05-04T00:52:58.290Z,20.52
2023-05-04T00:55:28.128Z,20.55
2023-05-04T00:57:57.701Z,18.17
2023-05-04T01:00:27.421Z,18.42
2023-05-04T01:02:57.692Z,20.60
2023-05-04T01:05:33.146Z,21.30
2023-05-04T01:08:09.499Z,18.50
2023-05-04T01:10:46.387Z,20.15
2023-05-04T01:13:18.389Z,23.85
2023-05-04T01:15:48.715Z,21.60
2023-05-04T01:18:18.332Z,23.10
2023-05-04T01:20:48.037Z,19.85
2023-05-04T01:23:20.540Z,21.67
2023-05-04T01:26:05.590Z,21.92
2023-05-04T01:28:41.715Z,25.75
2023-05-04T01:31:17.342Z,21.15
2023-05-04T01:33:47.831Z,20.15
2023-05-04T01:36:17.751Z,25.38
2023-05-04T01:38:50.243Z,28.38
2023-05-04T01:41:20.016Z,112.20
2023-05-04T01:43:49.680Z,79.43
2023-05-04T01:46:19.245Z,74.70
2023-05-04T01:48:48.828Z,61.78
2023-05-04T01:51:18.334Z,58.42
2023-05-04T01:53:50.424Z,52.95
2023-05-04T01:56:19.993Z,45.97
2023-05-04T01:58:49.514Z,35.22
2023-05-04T02:01:19.064Z,36.53
2023-05-04T02:03:48.689Z,40.47
2023-05-04T02:06:18.309Z,37.58
2023-05-04T02:08:51.187Z,40.42
2023-05-04T02:11:21.210Z,45.10
2023-05-04T02:13:50.746Z,43.85
2023-05-04T02:16:20.366Z,40.40
2023-05-04T02:18:49.928Z,43.13
2023-05-04T02:21:19.750Z,42.42
2023-05-04T02:23:52.001Z,42.42
2023-05-04T02:26:21.627Z,36.90
2023-05-04T02:28:51.184Z,34.28
2023-05-04T02:31:20.912Z,38.58
2023-05-04T02:33:50.497Z,39.88
2023-05-04T02:36:20.039Z,36.05
2023-05-04T02:38:52.684Z,31.92
2023-05-04T02:41:22.195Z,31.60
2023-05-04T02:43:51.828Z,31.42
2023-05-04T02:46:22.294Z,33.83
2023-05-04T02:48:51.892Z,28.98
2023-05-04T02:51:21.972Z,28.70
2023-05-04T02:53:54.051Z,26.17
2023-05-04T02:56:24.455Z,27.25
2023-05-04T02:58:54.036Z,29.27
2023-05-04T03:01:23.656Z,38.47
2023-05-04T03:03:53.232Z,33.80
2023-05-04T03:06:22.749Z,28.35
2023-05-04T03:08:54.884Z,34.47
2023-05-04T03:11:24.485Z,33.85
2023-05-04T03:13:54.018Z,36.17
2023-05-04T03:16:23.761Z,31.95
2023-05-04T03:21:36.737Z,31.50
2023-05-04T03:24:09.560Z,38.67
2023-05-04T03:26:39.103Z,29.88
2023-05-04T03:29:08.640Z,30.25
2023-05-04T03:31:38.226Z,31.33
2023-05-04T03:34:09.798Z,29.63
2023-05-04T03:36:39.330Z,32.88
2023-05-04T03:39:11.473Z,28.00
2023-05-04T03:41:41.054Z,26.20
2023-05-04T03:44:10.816Z,28.58
2023-05-04T03:46:40.400Z,24.85
2023-05-04T03:49:10.031Z,23.48
2023-05-04T03:51:39.673Z,20.63
2023-05-04T03:54:11.914Z,24.58
2023-05-04T03:56:41.418Z,20.95
2023-05-04T03:59:11.051Z,23.15
2023-05-04T04:01:40.635Z,18.15
2023-05-04T04:04:10.178Z,21.45
2023-05-04T04:06:41.936Z,19.95
2023-05-04T04:09:16.121Z,19.50
2023-05-04T04:11:45.709Z,13.80
2023-05-04T04:14:16.297Z,17.13
2023-05-04T04:16:46.002Z,17.58
2023-05-04T04:19:15.574Z,20.45
2023-05-04T04:21:45.255Z,15.85
2023-05-04T04:24:17.386Z,18.98
2023-05-04T04:26:47.076Z,16.00
2023-05-04T04:29:16.647Z,17.05
2023-05-04T04:31:48.987Z,19.23
2023-05-04T04:34:18.881Z,18.05
2023-05-04T04:36:48.400Z,16.45
2023-05-04T04:39:20.832Z,17.13
2023-05-04T04:41:50.556Z,19.20
2023-05-04T04:44:20.940Z,15.10
2023-05-04T04:46:50.547Z,13.18
2023-05-04T04:49:20.542Z,15.55
2023-05-04T04:51:50.579Z,16.23
2023-05-04T04:54:22.678Z,15.35
2023-05-04T04:56:52.204Z,13.20
2023-05-04T04:59:24.975Z,13.68
2023-05-04T05:01:54.702Z,13.43
2023-05-04T05:04:25.384Z,12.00
2023-05-04T05:06:55.005Z,13.85
2023-05-04T05:09:27.548Z,17.00
2023-05-04T05:11:57.153Z,14.70
2023-05-04T05:14:27.664Z,13.25
2023-05-04T05:16:57.723Z,13.27
2023-05-04T05:19:27.711Z,14.60
2023-05-04T05:21:57.258Z,14.15
2023-05-04T05:24:29.386Z,12.88
2023-05-04T05:26:59.162Z,11.60
2023-05-04T05:29:28.739Z,8.57
2023-05-04T05:31:58.325Z,11.88
2023-05-04T05:34:27.921Z,9.32
2023-05-04T05:36:57.456Z,11.20
2023-05-04T05:39:29.584Z,9.23
2023-05-04T05:42:00.222Z,11.90
2023-05-04T05:44:30.043Z,10.32
2023-05-04T05:46:59.630Z,9.23
2023-05-04T05:49:29.154Z,10.27
2023-05-04T05:51:59.184Z,9.25
2023-05-04T05:54:33.307Z,12.43
2023-05-04T05:57:02.964Z,11.23
2023-05-04T05:59:32.506Z,13.10
2023-05-04T06:02:03.527Z,10.45
2023-05-04T06:04:33.084Z,10.77
2023-05-04T06:07:02.691Z,11.68
2023-05-04T06:09:35.128Z,10.13
2023-05-04T06:12:06.534Z,10.95
2023-05-04T06:14:36.250Z,13.20
2023-05-04T06:17:05.786Z,11.38
2023-05-04T06:19:38.335Z,14.65
2023-05-04T06:22:08.429Z,9.95
2023-05-04T06:24:40.560Z,10.50
2023-05-04T06:27:10.078Z,11.10
2023-05-04T06:29:41.515Z,9.27
2023-05-04T06:32:11.307Z,10.45
2023-05-04T06:34:41.104Z,11.75
2023-05-04T06:37:14.012Z,12.13
2023-05-04T06:39:46.979Z,12.95
2023-05-04T06:42:16.549Z,10.52
2023-05-04T06:44:46.128Z,9.20
2023-05-04T06:47:15.865Z,12.18
2023-05-04T06:49:45.435Z,10.32
2023-05-04T06:52:15.173Z,9.55
2023-05-04T06:54:47.312Z,8.93
2023-05-04T06:57:16.852Z,10.20
2023-05-04T06:59:46.661Z,10.25
2023-05-04T07:02:16.533Z,9.23
2023-05-04T07:04:46.040Z,8.23
2023-05-04T07:07:15.866Z,6.85
2023-05-04T07:09:48.909Z,9.70
2023-05-04T07:12:18.795Z,7.82
2023-05-04T07:14:48.362Z,8.10
2023-05-04T07:17:17.915Z,8.43
2023-05-04T07:19:50.062Z,8.07
2023-05-04T07:22:21.000Z,6.88
2023-05-04T07:24:53.133Z,7.57
2023-05-04T07:27:22.677Z,5.93
2023-05-04T07:29:52.899Z,6.35
2023-05-04T07:32:22.615Z,7.30
2023-05-04T07:34:52.239Z,7.68
2023-05-04T07:37:21.896Z,8.05
2023-05-04T07:39:54.161Z,6.57
2023-05-04T07:42:23.727Z,7.53
2023-05-04T07:44:54.888Z,7.53
2023-05-04T07:47:24.747Z,7.60
2023-05-04T07:49:54.455Z,8.32
2023-05-04T07:52:24.025Z,6.85
2023-05-04T07:54:57.687Z,6.93
2023-05-04T07:57:27.536Z,5.95
2023-05-04T07:59:57.585Z,11.18
2023-05-04T08:02:27.345Z,8.32
2023-05-04T08:04:57.061Z,6.28
2023-05-04T08:07:26.842Z,5.35
2023-05-04T08:09:59.007Z,6.03
2023-05-04T08:12:28.910Z,6.68
2023-05-04T08:14:58.492Z,6.25
2023-05-04T08:17:28.509Z,5.72
2023-05-04T08:19:59.179Z,4.90
2023-05-04T08:22:28.715Z,6.70
2023-05-04T08:25:00.868Z,5.05
2023-05-04T08:27:30.494Z,6.07
2023-05-04T08:30:00.370Z,5.50
2023-05-04T08:32:32.531Z,6.10
2023-05-04T08:35:02.881Z,5.45
2023-05-04T08:37:32.808Z,6.97
2023-05-04T08:40:05.756Z,6.22
2023-05-04T08:42:36.579Z,5.50
2023-05-04T08:45:06.563Z,4.95
2023-05-04T08:47:36.325Z,6.93
2023-05-04T08:50:07.649Z,6.13
2023-05-04T08:52:39.644Z,6.43
2023-05-04T08:55:14.772Z,6.85
2023-05-04T08:57:45.710Z,5.78
2023-05-04T09:00:19.178Z,5.90
2023-05-04T09:02:49.912Z,6.65
2023-05-04T09:05:19.952Z,5.10
2023-05-04T09:07:51.240Z,8.70
2023-05-04T09:10:23.626Z,7.00
2023-05-04T09:12:53.796Z,6.65
2023-05-04T09:15:24.289Z,6.95
2023-05-04T09:18:05.505Z,6.38
2023-05-04T09:20:47.054Z,6.18
2023-05-04T09:23:18.276Z,7.28
2023-05-04T09:25:55.244Z,6.95
2023-05-04T09:28:36.392Z,7.00
2023-05-04T09:31:06.389Z,5.93
2023-05-04T09:33:37.136Z,7.75
2023-05-04T09:36:17.212Z,7.28
2023-05-04T09:38:46.873Z,6.55
2023-05-04T09:41:19.969Z,7.50
2023-05-04T09:43:49.491Z,5.90
2023-05-04T09:46:20.151Z,6.30
2023-05-04T09:48:57.030Z,6.70
2023-05-04T09:51:28.356Z,5.97
2023-05-04T09:53:59.767Z,8.32
2023-05-04T09:56:44.829Z,6.72
2023-05-04T09:59:15.511Z,7.28
2023-05-04T10:01:46.264Z,6.82
2023-05-04T10:04:16.432Z,7.90
2023-05-04T10:06:46.356Z,6.70
2023-05-04T10:09:16.834Z,6.95
2023-05-04T10:11:48.976Z,8.02
2023-05-04T10:14:18.650Z,6.55
2023-05-04T10:16:57.278Z,7.38
2023-05-04T10:19:42.134Z,6.57
2023-05-04T10:22:27.244Z,6.57
2023-05-04T10:25:20.863Z,7.43
2023-05-04T10:28:03.804Z,6.20
2023-05-04T10:30:33.679Z,4.85
2023-05-04T10:33:03.400Z,6.50
2023-05-04T10:35:33.109Z,5.75
2023-05-04T10:38:02.715Z,7.00
2023-05-04T10:40:37.865Z,5.80
2023-05-04T10:43:11.777Z,6.82
2023-05-04T10:45:42.858Z,6.95
2023-05-04T10:48:12.923Z,6.25
2023-05-04T10:50:46.595Z,7.28
2023-05-04T10:53:17.763Z,6.45
2023-05-04T10:55:49.211Z,10.82
2023-05-04T10:58:31.662Z,7.35
2023-05-04T11:01:01.286Z,5.10
2023-05-04T11:03:42.243Z,6.53
2023-05-04T11:06:19.632Z,7.03
2023-05-04T11:09:02.804Z,6.97
2023-05-04T11:11:32.399Z,7.35
2023-05-04T11:14:05.165Z,9.02
2023-05-04T11:16:34.739Z,5.88
2023-05-04T11:19:12.615Z,5.97
2023-05-04T11:21:43.535Z,6.10
2023-05-04T11:24:13.275Z,5.85
2023-05-04T11:26:51.063Z,7.72
2023-05-04T11:29:30.514Z,7.03
2023-05-04T11:32:00.093Z,7.82
2023-05-04T11:34:29.699Z,8.60
2023-05-04T11:36:59.494Z,5.90
2023-05-04T11:39:29.228Z,7.35
2023-05-04T11:42:01.137Z,5.18
2023-05-04T11:44:33.772Z,6.53
2023-05-04T11:47:03.481Z,6.50
2023-05-04T11:49:34.071Z,7.22
2023-05-04T11:52:09.946Z,4.70
2023-05-04T11:57:09.319Z,5.03
2023-05-04T11:59:51.211Z,5.60
2023-05-04T12:02:21.680Z,5.32
2023-05-04T12:04:51.343Z,4.80
2023-05-04T12:07:21.139Z,5.97
2023-05-04T12:09:51.871Z,8.07
2023-05-04T12:12:22.324Z,5.63
2023-05-04T12:14:57.065Z,6.95
2023-05-04T12:17:26.852Z,8.35
2023-05-04T12:19:58.225Z,7.10
2023-05-04T12:22:33.075Z,8.55
2023-05-04T12:25:03.456Z,7.43
2023-05-04T12:27:33.125Z,6.05
2023-05-04T12:32:39.658Z,6.00
2023-05-04T12:35:09.962Z,7.43
2023-05-04T12:37:39.661Z,8.15
2023-05-04T12:40:27.178Z,5.53
2023-05-04T12:42:57.591Z,5.30
2023-05-04T12:45:29.710Z,5.15
2023-05-04T12:47:59.263Z,5.72
2023-05-04T12:50:28.813Z,7.55
2023-05-04T12:52:58.444Z,8.15
2023-05-04T12:55:27.970Z,8.40
2023-05-04T12:57:57.526Z,7.55
2023-05-04T13:00:31.458Z,8.52
2023-05-04T13:03:01.223Z,7.93
2023-05-04T13:05:31.089Z,4.55
2023-05-04T13:08:01.105Z,9.10
2023-05-04T13:10:30.771Z,6.40
2023-05-04T13:13:00.336Z,7.47
2023-05-04T13:15:32.521Z,7.15
2023-05-04T13:18:02.234Z,5.75
2023-05-04T13:20:31.773Z,6.20
2023-05-04T13:23:01.308Z,5.15
2023-05-04T13:25:30.805Z,7.65
2023-05-04T13:28:00.547Z,5.20
2023-05-04T13:30:32.768Z,7.93
2023-05-04T13:33:07.639Z,4.78
2023-05-04T13:35:43.782Z,8.27
2023-05-04T13:38:13.374Z,8.55
2023-05-04T13:40:42.943Z,6.35
2023-05-04T13:43:12.488Z,6.35
2023-05-04T13:45:44.567Z,8.25
2023-05-04T13:48:14.140Z,4.72
2023-05-04T13:50:43.653Z,6.13
2023-05-04T13:53:13.789Z,6.13
2023-05-04T13:55:43.440Z,7.93
2023-05-04T13:58:12.964Z,6.45
2023-05-04T14:00:45.081Z,7.47
2023-05-04T14:03:14.684Z,4.97
2023-05-04T14:05:44.477Z,7.28
2023-05-04T14:08:13.983Z,6.88
2023-05-04T14:10:43.485Z,5.57
2023-05-04T14:13:13.100Z,5.55
2023-05-04T14:15:45.278Z,5.65
2023-05-04T14:18:14.817Z,5.90
2023-05-04T14:20:44.324Z,6.35
2023-05-04T14:23:13.873Z,6.53
2023-05-04T14:25:44.216Z,8.20
2023-05-04T14:28:15.288Z,6.40
2023-05-04T14:30:47.437Z,6.45
2023-05-04T14:33:17.007Z,5.65
2023-05-04T14:35:48.346Z,6.55
2023-05-04T14:38:18.248Z,6.18
2023-05-04T14:40:49.533Z,6.35
2023-05-04T14:43:19.351Z,6.35
2023-05-04T14:45:51.586Z,4.50
2023-05-04T14:48:23.310Z,5.45
2023-05-04T14:50:52.862Z,5.70
2023-05-04T14:53:22.493Z,6.85
2023-05-04T14:55:52.494Z,4.72
2023-05-04T14:58:22.064Z,5.97
2023-05-04T15:00:54.245Z,5.75
2023-05-04T15:03:24.093Z,6.03
2023-05-04T15:05:53.718Z,5.07
2023-05-04T15:08:23.219Z,5.90
2023-05-04T15:10:52.807Z,7.45
2023-05-04T15:13:22.313Z,5.65
2023-05-04T15:15:54.535Z,6.70
2023-05-04T15:18:24.250Z,5.95
2023-05-04T15:20:53.795Z,7.40
2023-05-04T15:23:24.573Z,5.40
2023-05-04T15:25:54.151Z,5.78
2023-05-04T15:28:23.654Z,5.80
2023-05-04T15:30:56.467Z,7.35
2023-05-04T15:33:25.982Z,8.35
2023-05-04T15:35:55.553Z,5.68
2023-05-04T15:38:25.099Z,8.48
2023-05-04T15:40:54.655Z,6.90
2023-05-04T15:43:24.227Z,5.03
2023-05-04T15:45:56.428Z,5.55
2023-05-04T15:48:26.529Z,5.45
2023-05-04T15:50:56.301Z,5.65
2023-05-04T15:53:25.913Z,6.55
2023-05-04T15:55:55.568Z,5.95
2023-05-04T15:58:25.098Z,7.40
2023-05-04T16:00:59.361Z,5.90
2023-05-04T16:03:28.924Z,7.03
2023-05-04T16:05:58.566Z,6.03
2023-05-04T16:08:28.215Z,7.20
2023-05-04T16:10:58.182Z,5.88
2023-05-04T16:13:27.730Z,5.80
2023-05-04T16:16:00.805Z,6.85
2023-05-04T16:18:30.941Z,7.03
2023-05-04T16:21:00.524Z,5.63
2023-05-04T16:23:31.242Z,5.13
2023-05-04T16:26:00.997Z,5.45
2023-05-04T16:28:30.843Z,6.22
2023-05-04T16:31:02.979Z,6.75
2023-05-04T16:33:32.672Z,6.07
2023-05-04T16:36:02.612Z,6.03
2023-05-04T16:38:32.156Z,6.03
2023-05-04T16:41:01.802Z,7.40
2023-05-04T16:43:32.086Z,5.60
2023-05-04T16:46:04.941Z,5.97
2023-05-04T16:48:34.630Z,7.07
2023-05-04T16:51:04.140Z,5.43
2023-05-04T16:53:33.704Z,7.07
2023-05-04T16:56:03.225Z,6.18
2023-05-04T16:58:32.822Z,6.05
2023-05-04T17:01:04.998Z,7.15
2023-05-04T17:03:35.756Z,5.28
2023-05-04T17:06:05.366Z,5.85
2023-05-04T17:08:35.078Z,5.95
2023-05-04T17:11:04.605Z,5.70
2023-05-04T17:13:34.134Z,6.20
2023-05-04T17:16:06.516Z,6.07
2023-05-04T17:18:36.052Z,5.78
2023-05-04T17:21:05.639Z,5.40
2023-05-04T17:23:35.264Z,7.40
2023-05-04T17:28:39.723Z,7.13
2023-05-04T17:31:12.849Z,6.38
2023-05-04T17:33:42.490Z,6.45
2023-05-04T17:36:12.467Z,9.43
2023-05-04T17:38:43.689Z,5.57
2023-05-04T17:41:13.378Z,7.70
2023-05-04T17:43:42.970Z,7.30
2023-05-04T17:46:15.350Z,7.63
2023-05-04T17:48:46.121Z,5.13
2023-05-04T17:51:17.000Z,8.13
2023-05-04T17:53:46.633Z,9.32
2023-05-04T17:56:16.219Z,11.20
2023-05-04T17:58:45.783Z,6.30
2023-05-04T18:01:18.522Z,6.00
2023-05-04T18:03:48.243Z,7.80
2023-05-04T18:06:17.844Z,6.30
2023-05-04T18:08:47.363Z,10.10
2023-05-04T18:11:16.887Z,8.73
2023-05-04T18:13:46.411Z,6.70
2023-05-04T18:16:18.585Z,8.00
2023-05-04T18:18:48.157Z,8.10
2023-05-04T18:21:17.754Z,8.82
2023-05-04T18:23:47.508Z,8.18
2023-05-04T18:26:22.878Z,7.22
2023-05-04T18:28:53.055Z,6.63
2023-05-04T18:31:25.836Z,7.22
2023-05-04T18:33:55.506Z,6.55
2023-05-04T18:36:25.028Z,8.13
2023-05-04T18:38:54.657Z,9.05
2023-05-04T18:41:24.142Z,8.02
2023-05-04T18:43:55.945Z,8.60
2023-05-04T18:46:28.183Z,7.40
2023-05-04T18:48:57.782Z,7.10
2023-05-04T18:51:28.985Z,11.90
2023-05-04T18:53:58.573Z,11.20
2023-05-04T18:56:28.404Z,8.50
2023-05-04T18:58:57.933Z,7.80
2023-05-04T19:01:30.268Z,8.85
2023-05-04T19:03:59.900Z,9.68
2023-05-04T19:06:29.598Z,11.13
2023-05-04T19:08:59.169Z,8.57
2023-05-04T19:11:28.846Z,9.30
2023-05-04T19:13:59.018Z,10.77
2023-05-04T19:16:31.348Z,10.15
2023-05-04T19:19:00.921Z,11.65
2023-05-04T19:21:30.593Z,9.68
2023-05-04T19:24:00.297Z,11.02
2023-05-04T19:26:30.006Z,8.18
2023-05-04T19:28:59.557Z,9.68
2023-05-04T19:31:31.846Z,10.82
2023-05-04T19:34:01.407Z,12.82
2023-05-04T19:36:30.936Z,14.52
2023-05-04T19:39:00.672Z,12.70
2023-05-04T19:41:30.270Z,14.82
2023-05-04T19:43:59.825Z,11.98
2023-05-04T19:46:32.538Z,10.80
2023-05-04T19:49:02.097Z,8.90
2023-05-04T19:51:31.655Z,12.18
2023-05-04T19:54:01.248Z,13.68
2023-05-04T19:56:30.823Z,10.93
2023-05-04T19:59:00.696Z,9.10
2023-05-04T20:01:33.003Z,10.45
2023-05-04T20:04:02.711Z,13.25
2023-05-04T20:06:32.289Z,14.15
2023-05-04T20:09:01.828Z,9.80
2023-05-04T20:11:31.404Z,14.50
2023-05-04T20:14:01.147Z,14.55
2023-05-04T20:16:33.283Z,13.43
2023-05-04T20:19:04.065Z,13.32
2023-05-04T20:21:33.949Z,13.75
2023-05-04T20:24:04.268Z,11.82
2023-05-04T20:26:33.837Z,18.90
2023-05-04T20:29:03.483Z,18.10
2023-05-04T20:31:35.860Z,15.13
2023-05-04T20:34:05.429Z,13.90
2023-05-04T20:36:34.990Z,18.15
2023-05-04T20:39:06.855Z,14.00
2023-05-04T20:41:36.665Z,11.45
2023-05-04T20:44:06.437Z,14.38
2023-05-04T20:46:39.024Z,13.00
2023-05-04T20:49:09.112Z,14.75
2023-05-04T20:51:39.638Z,11.07
2023-05-04T20:54:09.516Z,13.75
2023-05-04T20:56:39.151Z,14.43
2023-05-04T20:59:08.696Z,12.40
2023-05-04T21:01:40.938Z,11.57
2023-05-04T21:04:10.733Z,13.63
2023-05-04T21:06:40.286Z,12.70
2023-05-04T21:09:10.704Z,9.65
2023-05-04T21:11:40.913Z,11.43
2023-05-04T21:14:10.504Z,14.77
2023-05-04T21:16:42.584Z,12.85
2023-05-04T21:19:12.128Z,13.45
2023-05-04T21:21:42.517Z,13.10
2023-05-04T21:24:16.408Z,11.05
2023-05-04T21:26:46.115Z,13.30
2023-05-04T21:29:15.858Z,11.95
2023-05-04T21:31:48.005Z,14.32
2023-05-04T21:34:17.628Z,21.05
2023-05-04T21:36:47.210Z,17.75
2023-05-04T21:39:17.191Z,15.20
2023-05-04T21:41:46.764Z,14.65
2023-05-04T21:44:16.428Z,13.45
2023-05-04T21:46:48.547Z,13.95
2023-05-04T21:49:18.065Z,13.88
2023-05-04T21:51:47.624Z,15.55
2023-05-04T21:54:17.154Z,14.68
2023-05-04T21:56:46.733Z,14.82
2023-05-04T21:59:16.304Z,11.98
2023-05-04T22:01:48.495Z,12.07
2023-05-04T22:04:18.085Z,15.38
2023-05-04T22:06:48.409Z,14.13
2023-05-04T22:09:19.185Z,16.83
2023-05-04T22:11:49.696Z,16.67
2023-05-04T22:14:19.413Z,13.65
2023-05-04T22:16:53.034Z,17.52
2023-05-04T22:19:22.651Z,17.05
2023-05-04T22:21:52.275Z,16.58
2023-05-04T22:24:21.882Z,17.70
2023-05-04T22:26:51.393Z,15.73
2023-05-04T22:29:20.966Z,19.58
2023-05-04T22:31:53.056Z,15.90
2023-05-04T22:34:22.620Z,19.70
2023-05-04T22:36:52.130Z,18.70
2023-05-04T22:39:22.217Z,18.92
2023-05-04T22:41:51.786Z,17.45
2023-05-04T22:44:21.380Z,19.55
2023-05-04T22:46:53.641Z,17.17
2023-05-04T22:49:23.188Z,15.10
2023-05-04T22:51:52.722Z,17.17
2023-05-04T22:54:22.298Z,17.45
2023-05-04T22:56:51.896Z,20.67
2023-05-04T22:59:21.484Z,20.67
2023-05-04T23:01:53.679Z,16.75
2023-05-04T23:04:23.554Z,16.17
2023-05-04T23:06:53.107Z,21.40
2023-05-04T23:09:22.716Z,20.17
2023-05-04T23:11:52.334Z,21.80
2023-05-04T23:14:21.845Z,21.27
2023-05-04T23:16:54.176Z,21.60
2023-05-04T23:19:23.659Z,24.92
2023-05-04T23:21:53.202Z,18.67
2023-05-04T23:24:22.729Z,20.00
2023-05-04T23:26:52.482Z,25.10
2023-05-04T23:29:22.132Z,22.85
2023-05-04T23:31:54.294Z,19.10
2023-05-04T23:34:23.838Z,20.05
2023-05-04T23:36:55.912Z,19.02
2023-05-04T23:39:25.377Z,19.23
2023-05-04T23:41:58.430Z,20.35
2023-05-04T23:44:28.186Z,18.48
2023-05-04T23:47:00.288Z,19.52
2023-05-04T23:49:29.785Z,20.85
2023-05-04T23:51:59.339Z,20.98
2023-05-04T23:54:28.961Z,20.10
2023-05-04T23:56:58.895Z,17.67
2023-05-04T23:59:29.131Z,17.15
